sensor_id;sensor_type;location;lat;lon;timestamp;temperature;humidity
14031;DHT22;7090;49.436;8.490;2024-03-22T00:01:05;10.40;50.90
14031;DHT22;7090;49.436;8.490;2024-03-22T00:03:31;10.40;30.00
14031;DHT22;7090;49.436;8.490;2024-03-22T00:05:56;10.30;36.70
14031;DHT22;7090;49.436;8.490;2024-03-22T00:08:22;10.10;99.90
14031;DHT22;7090;49.436;8.490;2024-03-22T00:10:48;10.10;99.90
14031;DHT22;7090;49.436;8.490;2024-03-22T00:13:14;10.00;99.90
14031;DHT22;7090;49.436;8.490;2024-03-22T00:15:39;10.00;99.90
14031;DHT22;7090;49.436;8.490;2024-03-22T00:18:07;9.90;99.90
14031;DHT22;7090;49.436;8.490;2024-03-22T00:20:33;9.80;99.90
14031;DHT22;7090;49.436;8.490;2024-03-22T00:22:58;9.60;99.90
14031;DHT22;7090;49.436;8.490;2024-03-22T00:25:24;9.60;99.90
14031;DHT22;7090;49.436;8.490;2024-03-22T00:27:49;9.50;99.90
14031;DHT22;7090;49.436;8.490;2024-03-22T00:30:15;9.60;99.90
14031;DHT22;7090;49.436;8.490;2024-03-22T00:32:41;9.50;99.90
14031;DHT22;7090;49.436;8.490;2024-03-22T00:35:09;9.50;99.90
14031;DHT22;7090;49.436;8.490;2024-03-22T00:37:35;9.50;99.90
14031;DHT22;7090;49.436;8.490;2024-03-22T00:40:00;9.40;99.90
14031;DHT22;7090;49.436;8.490;2024-03-22T00:42:26;9.40;99.90
14031;DHT22;7090;49.436;8.490;2024-03-22T00:44:51;9.40;99.90
14031;DHT22;7090;49.436;8.490;2024-03-22T00:47:17;9.40;99.90
14031;DHT22;7090;49.436;8.490;2024-03-22T00:49:43;9.50;99.90
14031;DHT22;7090;49.436;8.490;2024-03-22T00:52:08;9.50;99.90
14031;DHT22;7090;49.436;8.490;2024-03-22T00:54:34;9.50;99.90
14031;DHT22;7090;49.436;8.490;2024-03-22T00:56:59;9.50;99.90
14031;DHT22;7090;49.436;8.490;2024-03-22T00:59:25;9.40;99.90
14031;DHT22;7090;49.436;8.490;2024-03-22T01:01:50;9.30;99.90
14031;DHT22;7090;49.436;8.490;2024-03-22T01:04:16;9.20;99.90
14031;DHT22;7090;49.436;8.490;2024-03-22T01:06:41;9.00;99.90
14031;DHT22;7090;49.436;8.490;2024-03-22T01:09:07;8.90;99.90
14031;DHT22;7090;49.436;8.490;2024-03-22T01:11:33;8.80;99.90
14031;DHT22;7090;49.436;8.490;2024-03-22T01:13:58;8.70;99.90
14031;DHT22;7090;49.436;8.490;2024-03-22T01:16:24;8.60;99.90
14031;DHT22;7090;49.436;8.490;2024-03-22T01:18:49;8.70;99.90
14031;DHT22;7090;49.436;8.490;2024-03-22T01:21:15;8.60;99.90
14031;DHT22;7090;49.436;8.490;2024-03-22T01:23:40;8.50;99.90
14031;DHT22;7090;49.436;8.490;2024-03-22T01:26:06;8.40;99.90
14031;DHT22;7090;49.436;8.490;2024-03-22T01:28:31;8.30;99.90
14031;DHT22;7090;49.436;8.490;2024-03-22T01:30:57;8.30;99.90
14031;DHT22;7090;49.436;8.490;2024-03-22T01:33:22;8.40;99.90
14031;DHT22;7090;49.436;8.490;2024-03-22T01:35:48;8.50;99.90
14031;DHT22;7090;49.436;8.490;2024-03-22T01:38:13;8.60;99.90
14031;DHT22;7090;49.436;8.490;2024-03-22T01:40:39;8.60;99.90
14031;DHT22;7090;49.436;8.490;2024-03-22T01:43:05;8.70;99.90
14031;DHT22;7090;49.436;8.490;2024-03-22T01:45:32;8.80;99.90
14031;DHT22;7090;49.436;8.490;2024-03-22T01:47:58;8.80;99.90
14031;DHT22;7090;49.436;8.490;2024-03-22T01:50:25;8.80;99.90
14031;DHT22;7090;49.436;8.490;2024-03-22T01:52:51;8.70;99.90
14031;DHT22;7090;49.436;8.490;2024-03-22T01:55:17;8.60;99.90
14031;DHT22;7090;49.436;8.490;2024-03-22T01:57:43;8.60;99.90
14031;DHT22;7090;49.436;8.490;2024-03-22T02:00:10;8.50;99.90
14031;DHT22;7090;49.436;8.490;2024-03-22T02:02:35;8.40;99.90
14031;DHT22;7090;49.436;8.490;2024-03-22T02:05:15;8.40;99.90
14031;DHT22;7090;49.436;8.490;2024-03-22T02:07:41;8.30;99.90
14031;DHT22;7090;49.436;8.490;2024-03-22T02:10:09;8.40;99.90
14031;DHT22;7090;49.436;8.490;2024-03-22T02:12:38;8.40;99.90
14031;DHT22;7090;49.436;8.490;2024-03-22T02:15:04;8.30;99.90
14031;DHT22;7090;49.436;8.490;2024-03-22T02:17:31;8.40;99.90
14031;DHT22;7090;49.436;8.490;2024-03-22T02:19:57;8.60;99.90
14031;DHT22;7090;49.436;8.490;2024-03-22T02:22:22;8.60;99.90
14031;DHT22;7090;49.436;8.490;2024-03-22T02:24:48;8.60;99.90
14031;DHT22;7090;49.436;8.490;2024-03-22T02:27:13;8.50;99.90
14031;DHT22;7090;49.436;8.490;2024-03-22T02:29:39;8.60;99.90
14031;DHT22;7090;49.436;8.490;2024-03-22T02:32:06;8.50;99.90
14031;DHT22;7090;49.436;8.490;2024-03-22T02:34:31;8.50;99.90
14031;DHT22;7090;49.436;8.490;2024-03-22T02:36:57;8.40;99.90
14031;DHT22;7090;49.436;8.490;2024-03-22T02:39:22;8.30;99.90
14031;DHT22;7090;49.436;8.490;2024-03-22T02:41:48;8.20;99.90
14031;DHT22;7090;49.436;8.490;2024-03-22T02:44:14;8.20;99.90
14031;DHT22;7090;49.436;8.490;2024-03-22T02:46:39;8.00;99.90
14031;DHT22;7090;49.436;8.490;2024-03-22T02:49:05;8.00;99.90
14031;DHT22;7090;49.436;8.490;2024-03-22T02:51:30;8.00;99.90
14031;DHT22;7090;49.436;8.490;2024-03-22T02:53:56;8.00;99.90
14031;DHT22;7090;49.436;8.490;2024-03-22T02:56:21;8.00;99.90
14031;DHT22;7090;49.436;8.490;2024-03-22T02:58:49;8.00;99.90
14031;DHT22;7090;49.436;8.490;2024-03-22T03:01:14;8.10;99.90
14031;DHT22;7090;49.436;8.490;2024-03-22T03:03:40;8.40;99.90
14031;DHT22;7090;49.436;8.490;2024-03-22T03:06:05;8.60;99.90
14031;DHT22;7090;49.436;8.490;2024-03-22T03:08:31;8.60;99.90
14031;DHT22;7090;49.436;8.490;2024-03-22T03:10:57;8.70;99.90
14031;DHT22;7090;49.436;8.490;2024-03-22T03:13:22;8.70;99.90
14031;DHT22;7090;49.436;8.490;2024-03-22T03:15:48;8.70;99.90
14031;DHT22;7090;49.436;8.490;2024-03-22T03:18:13;8.70;99.90
14031;DHT22;7090;49.436;8.490;2024-03-22T03:20:39;8.60;99.90
14031;DHT22;7090;49.436;8.490;2024-03-22T03:23:04;8.50;99.90
14031;DHT22;7090;49.436;8.490;2024-03-22T03:25:30;8.40;99.90
14031;DHT22;7090;49.436;8.490;2024-03-22T03:27:55;8.30;99.90
14031;DHT22;7090;49.436;8.490;2024-03-22T03:30:21;8.20;99.90
14031;DHT22;7090;49.436;8.490;2024-03-22T03:32:47;8.10;99.90
14031;DHT22;7090;49.436;8.490;2024-03-22T03:35:12;8.00;99.90
14031;DHT22;7090;49.436;8.490;2024-03-22T03:37:38;7.90;99.90
14031;DHT22;7090;49.436;8.490;2024-03-22T03:40:04;7.90;99.90
14031;DHT22;7090;49.436;8.490;2024-03-22T03:42:29;7.90;99.90
14031;DHT22;7090;49.436;8.490;2024-03-22T03:44:55;7.90;99.90
14031;DHT22;7090;49.436;8.490;2024-03-22T03:47:20;7.90;99.90
14031;DHT22;7090;49.436;8.490;2024-03-22T03:49:46;8.00;99.90
14031;DHT22;7090;49.436;8.490;2024-03-22T03:52:12;8.20;99.90
14031;DHT22;7090;49.436;8.490;2024-03-22T03:54:37;8.20;99.90
14031;DHT22;7090;49.436;8.490;2024-03-22T03:57:03;8.10;99.90
14031;DHT22;7090;49.436;8.490;2024-03-22T03:59:29;8.10;99.90
14031;DHT22;7090;49.436;8.490;2024-03-22T04:01:55;8.10;99.90
14031;DHT22;7090;49.436;8.490;2024-03-22T04:04:20;8.10;99.90
14031;DHT22;7090;49.436;8.490;2024-03-22T04:06:46;8.00;99.90
14031;DHT22;7090;49.436;8.490;2024-03-22T04:09:11;7.90;99.90
14031;DHT22;7090;49.436;8.490;2024-03-22T04:11:37;7.90;99.90
14031;DHT22;7090;49.436;8.490;2024-03-22T04:14:04;7.80;99.90
14031;DHT22;7090;49.436;8.490;2024-03-22T04:16:31;8.00;99.90
14031;DHT22;7090;49.436;8.490;2024-03-22T04:18:57;8.20;99.90
14031;DHT22;7090;49.436;8.490;2024-03-22T04:21:22;8.20;99.90
14031;DHT22;7090;49.436;8.490;2024-03-22T04:23:48;8.30;99.90
14031;DHT22;7090;49.436;8.490;2024-03-22T04:26:15;8.30;99.90
14031;DHT22;7090;49.436;8.490;2024-03-22T04:28:40;8.30;99.90
14031;DHT22;7090;49.436;8.490;2024-03-22T04:31:07;8.10;99.90
14031;DHT22;7090;49.436;8.490;2024-03-22T04:33:34;8.00;99.90
14031;DHT22;7090;49.436;8.490;2024-03-22T04:36:01;8.10;99.90
14031;DHT22;7090;49.436;8.490;2024-03-22T04:38:27;8.10;99.90
14031;DHT22;7090;49.436;8.490;2024-03-22T04:40:54;8.20;99.90
14031;DHT22;7090;49.436;8.490;2024-03-22T04:43:19;8.20;99.90
14031;DHT22;7090;49.436;8.490;2024-03-22T04:45:46;8.30;99.90
14031;DHT22;7090;49.436;8.490;2024-03-22T04:48:17;8.30;99.90
14031;DHT22;7090;49.436;8.490;2024-03-22T04:50:43;8.40;99.90
14031;DHT22;7090;49.436;8.490;2024-03-22T04:53:09;8.40;99.90
14031;DHT22;7090;49.436;8.490;2024-03-22T04:55:35;8.40;99.90
14031;DHT22;7090;49.436;8.490;2024-03-22T04:58:01;8.30;99.90
14031;DHT22;7090;49.436;8.490;2024-03-22T05:00:27;8.40;99.90
14031;DHT22;7090;49.436;8.490;2024-03-22T05:02:53;8.40;99.90
14031;DHT22;7090;49.436;8.490;2024-03-22T05:05:19;8.30;99.90
14031;DHT22;7090;49.436;8.490;2024-03-22T05:07:45;8.30;99.90
14031;DHT22;7090;49.436;8.490;2024-03-22T05:10:12;8.20;99.90
14031;DHT22;7090;49.436;8.490;2024-03-22T05:12:38;8.20;99.90
14031;DHT22;7090;49.436;8.490;2024-03-22T05:15:05;8.20;99.90
14031;DHT22;7090;49.436;8.490;2024-03-22T05:17:31;8.20;99.90
14031;DHT22;7090;49.436;8.490;2024-03-22T05:19:58;8.10;99.90
14031;DHT22;7090;49.436;8.490;2024-03-22T05:22:24;8.10;99.90
14031;DHT22;7090;49.436;8.490;2024-03-22T05:24:49;8.00;99.90
14031;DHT22;7090;49.436;8.490;2024-03-22T05:27:15;8.00;99.90
14031;DHT22;7090;49.436;8.490;2024-03-22T05:29:40;7.90;99.90
14031;DHT22;7090;49.436;8.490;2024-03-22T05:32:06;7.90;99.90
14031;DHT22;7090;49.436;8.490;2024-03-22T05:34:32;7.90;99.90
14031;DHT22;7090;49.436;8.490;2024-03-22T05:36:57;7.80;99.90
14031;DHT22;7090;49.436;8.490;2024-03-22T05:39:24;7.80;99.90
14031;DHT22;7090;49.436;8.490;2024-03-22T05:41:50;7.80;99.90
14031;DHT22;7090;49.436;8.490;2024-03-22T05:44:15;7.80;99.90
14031;DHT22;7090;49.436;8.490;2024-03-22T05:46:41;7.80;99.90
14031;DHT22;7090;49.436;8.490;2024-03-22T05:49:06;7.80;99.90
14031;DHT22;7090;49.436;8.490;2024-03-22T05:51:33;7.80;99.90
14031;DHT22;7090;49.436;8.490;2024-03-22T05:53:58;7.70;99.90
14031;DHT22;7090;49.436;8.490;2024-03-22T05:56:24;7.80;99.90
14031;DHT22;7090;49.436;8.490;2024-03-22T05:58:50;7.80;99.90
14031;DHT22;7090;49.436;8.490;2024-03-22T06:01:15;7.80;99.90
14031;DHT22;7090;49.436;8.490;2024-03-22T06:03:41;7.80;99.90
14031;DHT22;7090;49.436;8.490;2024-03-22T06:06:06;7.90;99.90
14031;DHT22;7090;49.436;8.490;2024-03-22T06:08:32;8.40;99.90
14031;DHT22;7090;49.436;8.490;2024-03-22T06:11:00;8.80;99.90
14031;DHT22;7090;49.436;8.490;2024-03-22T06:13:25;9.10;99.90
14031;DHT22;7090;49.436;8.490;2024-03-22T06:15:51;9.10;99.90
14031;DHT22;7090;49.436;8.490;2024-03-22T06:18:17;9.00;99.90
14031;DHT22;7090;49.436;8.490;2024-03-22T06:20:42;9.00;99.90
14031;DHT22;7090;49.436;8.490;2024-03-22T06:23:09;9.10;99.90
14031;DHT22;7090;49.436;8.490;2024-03-22T06:25:35;9.40;99.90
14031;DHT22;7090;49.436;8.490;2024-03-22T06:28:00;9.80;99.90
14031;DHT22;7090;49.436;8.490;2024-03-22T06:30:26;10.00;99.90
14031;DHT22;7090;49.436;8.490;2024-03-22T06:32:55;10.40;99.90
14031;DHT22;7090;49.436;8.490;2024-03-22T06:35:21;10.50;99.90
14031;DHT22;7090;49.436;8.490;2024-03-22T06:37:47;10.60;99.90
14031;DHT22;7090;49.436;8.490;2024-03-22T06:40:14;11.00;99.90
14031;DHT22;7090;49.436;8.490;2024-03-22T06:42:40;11.30;15.50
14031;DHT22;7090;49.436;8.490;2024-03-22T06:45:06;11.50;1.00
14031;DHT22;7090;49.436;8.490;2024-03-22T06:47:31;11.50;1.00
14031;DHT22;7090;49.436;8.490;2024-03-22T06:49:57;11.00;1.00
14031;DHT22;7090;49.436;8.490;2024-03-22T06:52:23;10.90;99.90
14031;DHT22;7090;49.436;8.490;2024-03-22T06:54:49;11.00;99.90
14031;DHT22;7090;49.436;8.490;2024-03-22T06:57:14;11.20;95.40
14031;DHT22;7090;49.436;8.490;2024-03-22T06:59:40;11.20;36.80
14031;DHT22;7090;49.436;8.490;2024-03-22T07:02:05;11.40;25.30
14031;DHT22;7090;49.436;8.490;2024-03-22T07:04:31;11.40;1.00
14031;DHT22;7090;49.436;8.490;2024-03-22T07:06:56;11.30;55.90
14031;DHT22;7090;49.436;8.490;2024-03-22T07:09:22;11.40;8.90
14031;DHT22;7090;49.436;8.490;2024-03-22T07:11:48;11.40;1.00
14031;DHT22;7090;49.436;8.490;2024-03-22T07:14:14;11.40;99.90
14031;DHT22;7090;49.436;8.490;2024-03-22T07:16:39;11.60;1.00
14031;DHT22;7090;49.436;8.490;2024-03-22T07:19:05;11.60;1.00
14031;DHT22;7090;49.436;8.490;2024-03-22T07:21:31;11.50;15.10
14031;DHT22;7090;49.436;8.490;2024-03-22T07:23:57;11.60;16.60
14031;DHT22;7090;49.436;8.490;2024-03-22T07:26:22;12.20;1.00
14031;DHT22;7090;49.436;8.490;2024-03-22T07:28:48;12.40;1.00
14031;DHT22;7090;49.436;8.490;2024-03-22T07:31:13;12.60;1.00
14031;DHT22;7090;49.436;8.490;2024-03-22T07:33:39;12.90;1.00
14031;DHT22;7090;49.436;8.490;2024-03-22T07:36:06;12.80;1.00
14031;DHT22;7090;49.436;8.490;2024-03-22T07:38:31;12.80;1.00
14031;DHT22;7090;49.436;8.490;2024-03-22T07:40:57;12.90;1.00
14031;DHT22;7090;49.436;8.490;2024-03-22T07:43:22;13.30;1.00
14031;DHT22;7090;49.436;8.490;2024-03-22T07:45:48;13.40;1.00
14031;DHT22;7090;49.436;8.490;2024-03-22T07:48:14;13.20;1.00
14031;DHT22;7090;49.436;8.490;2024-03-22T07:50:40;13.10;1.00
14031;DHT22;7090;49.436;8.490;2024-03-22T07:53:06;13.10;1.00
14031;DHT22;7090;49.436;8.490;2024-03-22T07:55:31;13.00;1.00
14031;DHT22;7090;49.436;8.490;2024-03-22T07:57:57;13.20;1.00
14031;DHT22;7090;49.436;8.490;2024-03-22T08:00:23;13.30;1.00
14031;DHT22;7090;49.436;8.490;2024-03-22T08:02:53;13.20;1.00
14031;DHT22;7090;49.436;8.490;2024-03-22T08:05:20;13.30;1.00
14031;DHT22;7090;49.436;8.490;2024-03-22T08:07:45;13.40;1.00
14031;DHT22;7090;49.436;8.490;2024-03-22T08:10:11;13.60;1.00
14031;DHT22;7090;49.436;8.490;2024-03-22T08:12:37;13.70;1.00
14031;DHT22;7090;49.436;8.490;2024-03-22T08:15:03;13.90;1.00
14031;DHT22;7090;49.436;8.490;2024-03-22T08:17:29;13.70;1.00
14031;DHT22;7090;49.436;8.490;2024-03-22T08:19:54;13.80;1.00
14031;DHT22;7090;49.436;8.490;2024-03-22T08:22:20;13.80;1.00
14031;DHT22;7090;49.436;8.490;2024-03-22T08:24:45;13.90;1.00
14031;DHT22;7090;49.436;8.490;2024-03-22T08:27:11;13.90;1.00
14031;DHT22;7090;49.436;8.490;2024-03-22T08:29:37;13.90;1.00
14031;DHT22;7090;49.436;8.490;2024-03-22T08:32:03;14.00;1.00
14031;DHT22;7090;49.436;8.490;2024-03-22T08:34:30;14.00;1.00
14031;DHT22;7090;49.436;8.490;2024-03-22T08:36:56;13.80;1.00
14031;DHT22;7090;49.436;8.490;2024-03-22T08:39:22;14.00;1.00
14031;DHT22;7090;49.436;8.490;2024-03-22T08:41:47;14.20;1.00
14031;DHT22;7090;49.436;8.490;2024-03-22T08:44:13;14.10;1.00
14031;DHT22;7090;49.436;8.490;2024-03-22T08:46:38;14.10;1.00
14031;DHT22;7090;49.436;8.490;2024-03-22T08:49:04;13.90;1.00
14031;DHT22;7090;49.436;8.490;2024-03-22T08:51:30;13.90;1.00
14031;DHT22;7090;49.436;8.490;2024-03-22T08:53:56;14.10;1.00
14031;DHT22;7090;49.436;8.490;2024-03-22T08:56:21;14.10;1.00
14031;DHT22;7090;49.436;8.490;2024-03-22T08:58:47;14.00;1.00
14031;DHT22;7090;49.436;8.490;2024-03-22T09:01:12;14.20;1.00
14031;DHT22;7090;49.436;8.490;2024-03-22T09:03:38;14.00;1.00
14031;DHT22;7090;49.436;8.490;2024-03-22T09:06:04;14.10;1.00
14031;DHT22;7090;49.436;8.490;2024-03-22T09:08:30;14.20;1.00
14031;DHT22;7090;49.436;8.490;2024-03-22T09:10:56;14.40;1.00
14031;DHT22;7090;49.436;8.490;2024-03-22T09:13:22;14.40;1.00
14031;DHT22;7090;49.436;8.490;2024-03-22T09:15:48;14.30;1.00
14031;DHT22;7090;49.436;8.490;2024-03-22T09:18:13;14.30;1.00
14031;DHT22;7090;49.436;8.490;2024-03-22T09:20:39;14.30;1.00
14031;DHT22;7090;49.436;8.490;2024-03-22T09:23:04;14.40;1.00
14031;DHT22;7090;49.436;8.490;2024-03-22T09:25:30;14.50;1.00
14031;DHT22;7090;49.436;8.490;2024-03-22T09:27:56;14.40;1.00
14031;DHT22;7090;49.436;8.490;2024-03-22T09:30:21;14.60;1.00
14031;DHT22;7090;49.436;8.490;2024-03-22T09:32:47;14.80;1.00
14031;DHT22;7090;49.436;8.490;2024-03-22T09:35:13;14.90;99.90
14031;DHT22;7090;49.436;8.490;2024-03-22T09:37:43;14.90;1.00
14031;DHT22;7090;49.436;8.490;2024-03-22T09:40:09;15.00;99.90
14031;DHT22;7090;49.436;8.490;2024-03-22T09:42:38;15.30;99.90
14031;DHT22;7090;49.436;8.490;2024-03-22T09:45:09;15.40;99.90
14031;DHT22;7090;49.436;8.490;2024-03-22T09:47:36;15.50;99.90
14031;DHT22;7090;49.436;8.490;2024-03-22T09:50:06;15.60;99.90
14031;DHT22;7090;49.436;8.490;2024-03-22T09:52:33;15.60;99.90
14031;DHT22;7090;49.436;8.490;2024-03-22T09:54:59;15.80;99.90
14031;DHT22;7090;49.436;8.490;2024-03-22T09:57:25;15.70;38.90
14031;DHT22;7090;49.436;8.490;2024-03-22T09:59:51;15.80;99.90
14031;DHT22;7090;49.436;8.490;2024-03-22T10:02:17;16.00;99.90
14031;DHT22;7090;49.436;8.490;2024-03-22T10:04:43;16.10;99.90
14031;DHT22;7090;49.436;8.490;2024-03-22T10:07:09;16.10;99.90
14031;DHT22;7090;49.436;8.490;2024-03-22T10:09:36;16.20;11.40
14031;DHT22;7090;49.436;8.490;2024-03-22T10:12:02;16.50;1.00
14031;DHT22;7090;49.436;8.490;2024-03-22T10:14:29;16.60;1.00
14031;DHT22;7090;49.436;8.490;2024-03-22T10:16:55;16.60;1.00
14031;DHT22;7090;49.436;8.490;2024-03-22T10:19:21;16.50;1.00
14031;DHT22;7090;49.436;8.490;2024-03-22T10:21:48;16.40;1.00
14031;DHT22;7090;49.436;8.490;2024-03-22T10:24:24;16.30;1.00
14031;DHT22;7090;49.436;8.490;2024-03-22T10:26:50;16.50;1.00
14031;DHT22;7090;49.436;8.490;2024-03-22T10:29:16;16.70;1.00
14031;DHT22;7090;49.436;8.490;2024-03-22T10:31:42;16.90;1.00
14031;DHT22;7090;49.436;8.490;2024-03-22T10:34:09;17.20;1.00
14031;DHT22;7090;49.436;8.490;2024-03-22T10:36:36;17.40;1.00
14031;DHT22;7090;49.436;8.490;2024-03-22T10:39:03;17.30;1.00
14031;DHT22;7090;49.436;8.490;2024-03-22T10:41:29;17.30;1.00
14031;DHT22;7090;49.436;8.490;2024-03-22T10:43:55;17.40;1.00
14031;DHT22;7090;49.436;8.490;2024-03-22T10:46:21;16.90;1.00
14031;DHT22;7090;49.436;8.490;2024-03-22T10:48:49;16.70;1.00
14031;DHT22;7090;49.436;8.490;2024-03-22T10:51:16;17.00;1.00
14031;DHT22;7090;49.436;8.490;2024-03-22T10:53:42;17.00;1.00
14031;DHT22;7090;49.436;8.490;2024-03-22T10:56:08;16.90;1.00
14031;DHT22;7090;49.436;8.490;2024-03-22T10:58:39;17.00;1.00
14031;DHT22;7090;49.436;8.490;2024-03-22T11:01:05;17.10;1.00
14031;DHT22;7090;49.436;8.490;2024-03-22T11:03:30;17.30;1.00
14031;DHT22;7090;49.436;8.490;2024-03-22T11:05:58;17.40;1.00
14031;DHT22;7090;49.436;8.490;2024-03-22T11:08:28;17.40;1.00
14031;DHT22;7090;49.436;8.490;2024-03-22T11:10:56;17.10;1.00
14031;DHT22;7090;49.436;8.490;2024-03-22T11:13:21;17.20;1.00
14031;DHT22;7090;49.436;8.490;2024-03-22T11:15:51;17.20;1.00
14031;DHT22;7090;49.436;8.490;2024-03-22T11:18:17;17.20;1.00
14031;DHT22;7090;49.436;8.490;2024-03-22T11:20:43;17.10;1.00
14031;DHT22;7090;49.436;8.490;2024-03-22T11:23:10;17.10;1.00
14031;DHT22;7090;49.436;8.490;2024-03-22T11:25:36;17.10;1.00
14031;DHT22;7090;49.436;8.490;2024-03-22T11:28:02;17.20;1.00
14031;DHT22;7090;49.436;8.490;2024-03-22T11:30:29;17.30;1.00
14031;DHT22;7090;49.436;8.490;2024-03-22T11:32:55;17.40;1.00
14031;DHT22;7090;49.436;8.490;2024-03-22T11:35:21;17.30;1.00
14031;DHT22;7090;49.436;8.490;2024-03-22T11:37:47;17.40;1.00
14031;DHT22;7090;49.436;8.490;2024-03-22T11:40:14;17.60;1.00
14031;DHT22;7090;49.436;8.490;2024-03-22T11:42:42;17.80;1.00
14031;DHT22;7090;49.436;8.490;2024-03-22T11:45:13;18.10;1.00
14031;DHT22;7090;49.436;8.490;2024-03-22T11:47:39;18.60;1.00
14031;DHT22;7090;49.436;8.490;2024-03-22T11:50:05;18.30;14.50
14031;DHT22;7090;49.436;8.490;2024-03-22T11:52:31;18.10;53.30
14031;DHT22;7090;49.436;8.490;2024-03-22T11:54:57;18.00;24.10
14031;DHT22;7090;49.436;8.490;2024-03-22T11:57:23;18.20;99.90
14031;DHT22;7090;49.436;8.490;2024-03-22T11:59:50;18.60;99.90
14031;DHT22;7090;49.436;8.490;2024-03-22T12:02:16;18.50;99.90
14031;DHT22;7090;49.436;8.490;2024-03-22T12:04:47;19.00;99.90
14031;DHT22;7090;49.436;8.490;2024-03-22T12:07:14;19.10;99.90
14031;DHT22;7090;49.436;8.490;2024-03-22T12:09:41;19.90;99.90
14031;DHT22;7090;49.436;8.490;2024-03-22T12:12:09;20.10;99.90
14031;DHT22;7090;49.436;8.490;2024-03-22T12:14:35;19.70;99.90
14031;DHT22;7090;49.436;8.490;2024-03-22T12:17:04;19.50;99.90
14031;DHT22;7090;49.436;8.490;2024-03-22T12:19:30;19.40;99.90
14031;DHT22;7090;49.436;8.490;2024-03-22T12:21:56;19.40;1.00
14031;DHT22;7090;49.436;8.490;2024-03-22T12:24:23;19.50;1.00
14031;DHT22;7090;49.436;8.490;2024-03-22T12:26:49;19.40;1.00
14031;DHT22;7090;49.436;8.490;2024-03-22T12:29:18;19.20;1.00
14031;DHT22;7090;49.436;8.490;2024-03-22T12:31:44;19.40;1.00
14031;DHT22;7090;49.436;8.490;2024-03-22T12:34:10;19.50;1.00
14031;DHT22;7090;49.436;8.490;2024-03-22T12:36:35;19.90;1.00
14031;DHT22;7090;49.436;8.490;2024-03-22T12:39:02;20.30;1.00
14031;DHT22;7090;49.436;8.490;2024-03-22T12:41:28;20.10;1.00
14031;DHT22;7090;49.436;8.490;2024-03-22T12:43:54;19.50;1.00
14031;DHT22;7090;49.436;8.490;2024-03-22T12:46:20;19.30;1.00
14031;DHT22;7090;49.436;8.490;2024-03-22T12:48:46;19.40;1.00
14031;DHT22;7090;49.436;8.490;2024-03-22T12:51:11;19.50;1.00
14031;DHT22;7090;49.436;8.490;2024-03-22T12:53:37;19.80;1.00
14031;DHT22;7090;49.436;8.490;2024-03-22T12:56:03;19.90;1.00
14031;DHT22;7090;49.436;8.490;2024-03-22T12:58:30;20.30;1.00
14031;DHT22;7090;49.436;8.490;2024-03-22T13:00:56;20.70;1.00
14031;DHT22;7090;49.436;8.490;2024-03-22T13:03:22;20.30;1.00
14031;DHT22;7090;49.436;8.490;2024-03-22T13:05:48;20.20;1.00
14031;DHT22;7090;49.436;8.490;2024-03-22T13:08:13;20.10;1.00
14031;DHT22;7090;49.436;8.490;2024-03-22T13:10:39;20.10;1.00
14031;DHT22;7090;49.436;8.490;2024-03-22T13:13:09;20.10;1.00
14031;DHT22;7090;49.436;8.490;2024-03-22T13:15:34;20.30;1.00
14031;DHT22;7090;49.436;8.490;2024-03-22T13:18:02;20.50;1.00
14031;DHT22;7090;49.436;8.490;2024-03-22T13:20:28;20.30;1.00
14031;DHT22;7090;49.436;8.490;2024-03-22T13:22:53;19.90;1.00
14031;DHT22;7090;49.436;8.490;2024-03-22T13:25:19;19.70;1.00
14031;DHT22;7090;49.436;8.490;2024-03-22T13:27:45;19.80;1.00
14031;DHT22;7090;49.436;8.490;2024-03-22T13:30:10;20.40;1.00
14031;DHT22;7090;49.436;8.490;2024-03-22T13:32:38;20.80;1.00
14031;DHT22;7090;49.436;8.490;2024-03-22T13:35:04;20.60;1.00
14031;DHT22;7090;49.436;8.490;2024-03-22T13:37:30;20.40;1.00
14031;DHT22;7090;49.436;8.490;2024-03-22T13:39:56;20.00;1.00
14031;DHT22;7090;49.436;8.490;2024-03-22T13:42:22;19.90;1.00
14031;DHT22;7090;49.436;8.490;2024-03-22T13:44:48;19.70;1.00
14031;DHT22;7090;49.436;8.490;2024-03-22T13:47:13;19.80;1.00
14031;DHT22;7090;49.436;8.490;2024-03-22T13:49:39;19.60;1.00
14031;DHT22;7090;49.436;8.490;2024-03-22T13:52:08;19.60;1.00
14031;DHT22;7090;49.436;8.490;2024-03-22T13:54:34;19.30;1.00
14031;DHT22;7090;49.436;8.490;2024-03-22T13:57:01;19.20;1.00
14031;DHT22;7090;49.436;8.490;2024-03-22T13:59:28;19.30;1.00
14031;DHT22;7090;49.436;8.490;2024-03-22T14:01:54;19.50;1.00
14031;DHT22;7090;49.436;8.490;2024-03-22T14:04:20;19.60;1.00
14031;DHT22;7090;49.436;8.490;2024-03-22T14:06:45;19.60;1.00
14031;DHT22;7090;49.436;8.490;2024-03-22T14:09:11;19.70;1.00
14031;DHT22;7090;49.436;8.490;2024-03-22T14:11:39;19.10;1.00
14031;DHT22;7090;49.436;8.490;2024-03-22T14:14:05;19.00;1.00
14031;DHT22;7090;49.436;8.490;2024-03-22T14:16:31;19.00;1.00
14031;DHT22;7090;49.436;8.490;2024-03-22T14:18:56;18.80;1.00
14031;DHT22;7090;49.436;8.490;2024-03-22T14:21:22;18.80;1.00
14031;DHT22;7090;49.436;8.490;2024-03-22T14:23:48;18.70;1.00
14031;DHT22;7090;49.436;8.490;2024-03-22T14:26:15;18.80;1.00
14031;DHT22;7090;49.436;8.490;2024-03-22T14:28:42;18.70;1.00
14031;DHT22;7090;49.436;8.490;2024-03-22T14:31:08;18.70;99.90
14031;DHT22;7090;49.436;8.490;2024-03-22T14:33:38;18.70;99.90
14031;DHT22;7090;49.436;8.490;2024-03-22T14:36:04;18.80;99.90
14031;DHT22;7090;49.436;8.490;2024-03-22T14:38:30;18.70;99.90
14031;DHT22;7090;49.436;8.490;2024-03-22T14:40:56;18.80;99.90
14031;DHT22;7090;49.436;8.490;2024-03-22T14:43:23;18.80;99.90
14031;DHT22;7090;49.436;8.490;2024-03-22T14:45:55;18.80;99.90
14031;DHT22;7090;49.436;8.490;2024-03-22T14:48:24;18.90;99.90
14031;DHT22;7090;49.436;8.490;2024-03-22T14:50:50;18.90;99.90
14031;DHT22;7090;49.436;8.490;2024-03-22T14:53:19;18.90;99.90
14031;DHT22;7090;49.436;8.490;2024-03-22T14:56:12;18.80;99.90
14031;DHT22;7090;49.436;8.490;2024-03-22T14:58:38;18.80;99.90
14031;DHT22;7090;49.436;8.490;2024-03-22T15:01:05;18.90;99.90
14031;DHT22;7090;49.436;8.490;2024-03-22T15:03:31;19.00;99.90
14031;DHT22;7090;49.436;8.490;2024-03-22T15:05:58;18.90;99.90
14031;DHT22;7090;49.436;8.490;2024-03-22T15:08:27;19.00;99.90
14031;DHT22;7090;49.436;8.490;2024-03-22T15:10:57;19.00;99.90
14031;DHT22;7090;49.436;8.490;2024-03-22T15:13:23;19.00;99.90
14031;DHT22;7090;49.436;8.490;2024-03-22T15:15:52;18.80;99.90
14031;DHT22;7090;49.436;8.490;2024-03-22T15:18:18;18.90;99.90
14031;DHT22;7090;49.436;8.490;2024-03-22T15:20:44;19.20;99.90
14031;DHT22;7090;49.436;8.490;2024-03-22T15:23:09;19.60;99.90
14031;DHT22;7090;49.436;8.490;2024-03-22T15:25:35;19.80;99.90
14031;DHT22;7090;49.436;8.490;2024-03-22T15:28:00;19.50;99.90
14031;DHT22;7090;49.436;8.490;2024-03-22T15:30:26;19.60;99.90
14031;DHT22;7090;49.436;8.490;2024-03-22T15:32:52;19.70;99.90
14031;DHT22;7090;49.436;8.490;2024-03-22T15:35:19;19.60;99.90
14031;DHT22;7090;49.436;8.490;2024-03-22T15:37:45;19.30;99.90
14031;DHT22;7090;49.436;8.490;2024-03-22T15:40:11;19.30;99.90
14031;DHT22;7090;49.436;8.490;2024-03-22T15:42:36;19.10;99.90
14031;DHT22;7090;49.436;8.490;2024-03-22T15:45:04;19.00;99.90
14031;DHT22;7090;49.436;8.490;2024-03-22T15:47:31;19.00;99.90
14031;DHT22;7090;49.436;8.490;2024-03-22T15:50:00;19.10;99.90